sensor_id;sensor_type;location;lat;lon;timestamp;P1;durP1;ratioP1;P2;durP2;ratioP2
7525;SDS011;3804;50.860;6.208;2022-10-31T00:00:14;14.87;;;6.50;;
7525;SDS011;3804;50.860;6.208;2022-10-31T00:02:41;12.53;;;6.50;;
7525;SDS011;3804;50.860;6.208;2022-10-31T00:05:08;13.73;;;6.13;;
7525;SDS011;3804;50.860;6.208;2022-10-31T00:07:34;12.83;;;7.07;;
7525;SDS011;3804;50.860;6.208;2022-10-31T00:10:01;13.33;;;6.67;;
7525;SDS011;3804;50.860;6.208;2022-10-31T00:12:28;10.00;;;6.50;;
7525;SDS011;3804;50.860;6.208;2022-10-31T00:14:54;13.67;;;6.70;;
7525;SDS011;3804;50.860;6.208;2022-10-31T00:17:21;14.27;;;6.93;;
7525;SDS011;3804;50.860;6.208;2022-10-31T00:19:47;10.47;;;6.80;;
7525;SDS011;3804;50.860;6.208;2022-10-31T00:22:14;12.73;;;6.50;;
7525;SDS011;3804;50.860;6.208;2022-10-31T00:24:41;12.20;;;6.83;;
7525;SDS011;3804;50.860;6.208;2022-10-31T00:27:07;15.80;;;7.70;;
7525;SDS011;3804;50.860;6.208;2022-10-31T00:29:34;14.50;;;7.73;;
7525;SDS011;3804;50.860;6.208;2022-10-31T00:32:00;15.63;;;7.50;;
7525;SDS011;3804;50.860;6.208;2022-10-31T00:34:27;8.87;;;6.50;;
7525;SDS011;3804;50.860;6.208;2022-10-31T00:36:54;13.73;;;6.83;;
7525;SDS011;3804;50.860;6.208;2022-10-31T00:39:21;13.23;;;6.70;;
7525;SDS011;3804;50.860;6.208;2022-10-31T00:41:47;12.57;;;6.73;;
7525;SDS011;3804;50.860;6.208;2022-10-31T00:44:14;14.33;;;6.60;;
7525;SDS011;3804;50.860;6.208;2022-10-31T00:46:40;8.83;;;6.40;;
7525;SDS011;3804;50.860;6.208;2022-10-31T00:49:07;13.03;;;7.07;;
7525;SDS011;3804;50.860;6.208;2022-10-31T00:51:34;14.97;;;7.20;;
7525;SDS011;3804;50.860;6.208;2022-10-31T00:54:00;10.33;;;6.47;;
7525;SDS011;3804;50.860;6.208;2022-10-31T00:56:27;11.97;;;6.77;;
7525;SDS011;3804;50.860;6.208;2022-10-31T00:58:54;14.20;;;7.20;;
7525;SDS011;3804;50.860;6.208;2022-10-31T01:01:20;10.23;;;6.87;;
7525;SDS011;3804;50.860;6.208;2022-10-31T01:03:48;12.73;;;6.47;;
7525;SDS011;3804;50.860;6.208;2022-10-31T01:06:15;9.17;;;6.90;;
7525;SDS011;3804;50.860;6.208;2022-10-31T01:08:42;10.70;;;6.13;;
7525;SDS011;3804;50.860;6.208;2022-10-31T01:11:13;13.17;;;7.30;;
7525;SDS011;3804;50.860;6.208;2022-10-31T01:13:40;11.50;;;6.50;;
7525;SDS011;3804;50.860;6.208;2022-10-31T01:16:08;12.67;;;7.23;;
7525;SDS011;3804;50.860;6.208;2022-10-31T01:18:36;12.17;;;6.90;;
7525;SDS011;3804;50.860;6.208;2022-10-31T01:21:04;11.83;;;7.57;;
7525;SDS011;3804;50.860;6.208;2022-10-31T01:23:31;12.70;;;7.50;;
7525;SDS011;3804;50.860;6.208;2022-10-31T01:25:59;14.70;;;7.57;;
7525;SDS011;3804;50.860;6.208;2022-10-31T01:28:26;12.40;;;7.47;;
7525;SDS011;3804;50.860;6.208;2022-10-31T01:30:52;15.20;;;7.57;;
7525;SDS011;3804;50.860;6.208;2022-10-31T01:33:19;12.17;;;7.93;;
7525;SDS011;3804;50.860;6.208;2022-10-31T01:35:45;13.37;;;7.93;;
7525;SDS011;3804;50.860;6.208;2022-10-31T01:38:12;13.27;;;8.20;;
7525;SDS011;3804;50.860;6.208;2022-10-31T01:40:39;14.23;;;7.43;;
7525;SDS011;3804;50.860;6.208;2022-10-31T01:43:08;12.93;;;7.20;;
7525;SDS011;3804;50.860;6.208;2022-10-31T01:45:36;13.60;;;7.63;;
7525;SDS011;3804;50.860;6.208;2022-10-31T01:48:02;18.10;;;9.17;;
7525;SDS011;3804;50.860;6.208;2022-10-31T01:50:34;12.80;;;8.10;;
7525;SDS011;3804;50.860;6.208;2022-10-31T01:53:03;15.77;;;7.73;;
7525;SDS011;3804;50.860;6.208;2022-10-31T01:55:34;12.93;;;7.53;;
7525;SDS011;3804;50.860;6.208;2022-10-31T01:58:03;11.93;;;7.67;;
7525;SDS011;3804;50.860;6.208;2022-10-31T02:00:31;13.67;;;8.00;;
7525;SDS011;3804;50.860;6.208;2022-10-31T02:02:58;12.70;;;6.60;;
7525;SDS011;3804;50.860;6.208;2022-10-31T02:05:27;13.53;;;7.13;;
7525;SDS011;3804;50.860;6.208;2022-10-31T02:10:33;11.40;;;6.83;;
7525;SDS011;3804;50.860;6.208;2022-10-31T02:13:03;11.27;;;7.10;;
7525;SDS011;3804;50.860;6.208;2022-10-31T02:15:31;11.63;;;6.83;;
7525;SDS011;3804;50.860;6.208;2022-10-31T02:17:58;10.00;;;6.30;;
7525;SDS011;3804;50.860;6.208;2022-10-31T02:20:27;9.93;;;6.33;;
7525;SDS011;3804;50.860;6.208;2022-10-31T02:33:19;9.23;;;6.50;;
7525;SDS011;3804;50.860;6.208;2022-10-31T02:43:55;10.20;;;6.60;;
7525;SDS011;3804;50.860;6.208;2022-10-31T02:49:07;10.93;;;6.53;;
7525;SDS011;3804;50.860;6.208;2022-10-31T02:51:35;16.37;;;6.63;;
7525;SDS011;3804;50.860;6.208;2022-10-31T02:54:02;11.20;;;6.87;;
7525;SDS011;3804;50.860;6.208;2022-10-31T02:56:30;13.70;;;6.47;;
7525;SDS011;3804;50.860;6.208;2022-10-31T02:58:58;9.27;;;5.97;;
7525;SDS011;3804;50.860;6.208;2022-10-31T03:06:54;11.00;;;6.57;;
7525;SDS011;3804;50.860;6.208;2022-10-31T03:14:37;10.53;;;6.63;;
7525;SDS011;3804;50.860;6.208;2022-10-31T03:17:07;11.27;;;7.30;;
7525;SDS011;3804;50.860;6.208;2022-10-31T03:19:39;14.77;;;7.73;;
7525;SDS011;3804;50.860;6.208;2022-10-31T03:25:02;15.27;;;7.60;;
7525;SDS011;3804;50.860;6.208;2022-10-31T03:27:31;11.33;;;6.67;;
7525;SDS011;3804;50.860;6.208;2022-10-31T03:29:59;14.03;;;6.70;;
7525;SDS011;3804;50.860;6.208;2022-10-31T03:32:31;17.33;;;7.43;;
7525;SDS011;3804;50.860;6.208;2022-10-31T03:35:02;13.60;;;7.13;;
7525;SDS011;3804;50.860;6.208;2022-10-31T03:37:32;11.27;;;6.90;;
7525;SDS011;3804;50.860;6.208;2022-10-31T03:40:01;12.50;;;7.50;;
7525;SDS011;3804;50.860;6.208;2022-10-31T03:42:31;11.97;;;6.77;;
7525;SDS011;3804;50.860;6.208;2022-10-31T03:45:11;13.87;;;7.93;;
7525;SDS011;3804;50.860;6.208;2022-10-31T03:47:40;12.93;;;7.60;;
7525;SDS011;3804;50.860;6.208;2022-10-31T03:50:07;13.03;;;7.77;;
7525;SDS011;3804;50.860;6.208;2022-10-31T03:55:13;12.53;;;7.63;;
7525;SDS011;3804;50.860;6.208;2022-10-31T04:00:10;13.77;;;7.50;;
7525;SDS011;3804;50.860;6.208;2022-10-31T04:02:45;13.80;;;7.73;;
7525;SDS011;3804;50.860;6.208;2022-10-31T04:05:14;13.33;;;7.63;;
7525;SDS011;3804;50.860;6.208;2022-10-31T04:07:43;12.47;;;7.33;;
7525;SDS011;3804;50.860;6.208;2022-10-31T04:10:12;21.40;;;7.73;;
7525;SDS011;3804;50.860;6.208;2022-10-31T04:12:41;15.67;;;8.73;;
7525;SDS011;3804;50.860;6.208;2022-10-31T04:15:18;14.13;;;7.73;;
7525;SDS011;3804;50.860;6.208;2022-10-31T04:17:45;15.03;;;8.60;;
7525;SDS011;3804;50.860;6.208;2022-10-31T04:20:16;15.20;;;8.27;;
7525;SDS011;3804;50.860;6.208;2022-10-31T04:22:42;15.13;;;9.50;;
7525;SDS011;3804;50.860;6.208;2022-10-31T04:25:09;13.57;;;8.10;;
7525;SDS011;3804;50.860;6.208;2022-10-31T04:27:37;16.17;;;9.30;;
7525;SDS011;3804;50.860;6.208;2022-10-31T04:30:06;16.97;;;9.37;;
7525;SDS011;3804;50.860;6.208;2022-10-31T04:32:35;12.43;;;9.27;;
7525;SDS011;3804;50.860;6.208;2022-10-31T04:35:03;15.27;;;8.67;;
7525;SDS011;3804;50.860;6.208;2022-10-31T04:37:30;12.23;;;8.77;;
7525;SDS011;3804;50.860;6.208;2022-10-31T04:39:56;13.13;;;8.77;;
7525;SDS011;3804;50.860;6.208;2022-10-31T04:42:41;19.40;;;9.30;;
7525;SDS011;3804;50.860;6.208;2022-10-31T04:45:09;14.90;;;8.30;;
7525;SDS011;3804;50.860;6.208;2022-10-31T04:47:36;15.10;;;8.27;;
7525;SDS011;3804;50.860;6.208;2022-10-31T04:50:03;15.70;;;9.33;;
7525;SDS011;3804;50.860;6.208;2022-10-31T04:52:31;14.43;;;8.70;;
7525;SDS011;3804;50.860;6.208;2022-10-31T04:54:59;13.97;;;7.70;;
7525;SDS011;3804;50.860;6.208;2022-10-31T04:57:51;14.57;;;7.63;;
7525;SDS011;3804;50.860;6.208;2022-10-31T05:00:19;13.43;;;7.80;;
7525;SDS011;3804;50.860;6.208;2022-10-31T05:02:49;19.97;;;7.90;;
7525;SDS011;3804;50.860;6.208;2022-10-31T05:05:17;13.87;;;7.80;;
7525;SDS011;3804;50.860;6.208;2022-10-31T05:07:44;14.20;;;8.70;;
7525;SDS011;3804;50.860;6.208;2022-10-31T05:10:12;13.63;;;8.40;;
7525;SDS011;3804;50.860;6.208;2022-10-31T05:13:14;14.67;;;8.20;;
7525;SDS011;3804;50.860;6.208;2022-10-31T05:15:52;14.70;;;8.40;;
7525;SDS011;3804;50.860;6.208;2022-10-31T05:18:40;13.53;;;7.80;;
7525;SDS011;3804;50.860;6.208;2022-10-31T05:21:19;16.40;;;8.20;;
7525;SDS011;3804;50.860;6.208;2022-10-31T05:23:50;13.77;;;7.77;;
7525;SDS011;3804;50.860;6.208;2022-10-31T05:26:17;12.77;;;7.83;;
7525;SDS011;3804;50.860;6.208;2022-10-31T05:28:44;15.27;;;8.20;;
7525;SDS011;3804;50.860;6.208;2022-10-31T05:31:10;18.13;;;10.27;;
7525;SDS011;3804;50.860;6.208;2022-10-31T05:33:37;15.40;;;9.83;;
7525;SDS011;3804;50.860;6.208;2022-10-31T05:36:22;16.20;;;11.47;;
7525;SDS011;3804;50.860;6.208;2022-10-31T05:38:56;18.27;;;11.63;;
7525;SDS011;3804;50.860;6.208;2022-10-31T05:41:24;17.60;;;10.20;;
7525;SDS011;3804;50.860;6.208;2022-10-31T05:43:59;19.40;;;10.70;;
7525;SDS011;3804;50.860;6.208;2022-10-31T05:46:28;16.47;;;9.77;;
7525;SDS011;3804;50.860;6.208;2022-10-31T05:49:13;16.63;;;9.67;;
7525;SDS011;3804;50.860;6.208;2022-10-31T05:51:59;16.83;;;8.87;;
7525;SDS011;3804;50.860;6.208;2022-10-31T05:54:34;17.97;;;9.20;;
7525;SDS011;3804;50.860;6.208;2022-10-31T05:57:01;15.80;;;9.60;;
7525;SDS011;3804;50.860;6.208;2022-10-31T05:59:28;15.87;;;9.13;;
7525;SDS011;3804;50.860;6.208;2022-10-31T06:01:54;14.23;;;9.67;;
7525;SDS011;3804;50.860;6.208;2022-10-31T06:04:47;14.60;;;9.50;;
7525;SDS011;3804;50.860;6.208;2022-10-31T06:07:14;18.47;;;10.07;;
7525;SDS011;3804;50.860;6.208;2022-10-31T06:09:40;16.33;;;9.97;;
7525;SDS011;3804;50.860;6.208;2022-10-31T06:12:07;19.00;;;9.80;;
7525;SDS011;3804;50.860;6.208;2022-10-31T06:15:06;14.83;;;10.10;;
7525;SDS011;3804;50.860;6.208;2022-10-31T06:17:33;13.57;;;9.80;;
7525;SDS011;3804;50.860;6.208;2022-10-31T06:20:23;16.33;;;10.13;;
7525;SDS011;3804;50.860;6.208;2022-10-31T06:23:10;14.80;;;11.00;;
7525;SDS011;3804;50.860;6.208;2022-10-31T06:25:39;17.43;;;10.37;;
7525;SDS011;3804;50.860;6.208;2022-10-31T06:28:06;17.07;;;10.97;;
7525;SDS011;3804;50.860;6.208;2022-10-31T06:30:52;18.50;;;11.73;;
7525;SDS011;3804;50.860;6.208;2022-10-31T06:33:19;21.00;;;11.10;;
7525;SDS011;3804;50.860;6.208;2022-10-31T06:35:54;14.13;;;10.37;;
7525;SDS011;3804;50.860;6.208;2022-10-31T06:38:21;19.73;;;11.50;;
7525;SDS011;3804;50.860;6.208;2022-10-31T06:40:48;18.47;;;10.83;;
7525;SDS011;3804;50.860;6.208;2022-10-31T06:43:22;18.73;;;11.50;;
7525;SDS011;3804;50.860;6.208;2022-10-31T06:45:57;16.00;;;11.47;;
7525;SDS011;3804;50.860;6.208;2022-10-31T06:48:30;19.23;;;11.33;;
7525;SDS011;3804;50.860;6.208;2022-10-31T06:51:14;19.37;;;11.30;;
7525;SDS011;3804;50.860;6.208;2022-10-31T06:53:41;17.23;;;10.47;;
7525;SDS011;3804;50.860;6.208;2022-10-31T06:56:10;23.90;;;11.60;;
7525;SDS011;3804;50.860;6.208;2022-10-31T06:58:43;19.77;;;11.50;;
7525;SDS011;3804;50.860;6.208;2022-10-31T07:01:10;18.83;;;11.70;;
7525;SDS011;3804;50.860;6.208;2022-10-31T07:03:38;18.03;;;11.53;;
7525;SDS011;3804;50.860;6.208;2022-10-31T07:06:06;24.27;;;11.90;;
7525;SDS011;3804;50.860;6.208;2022-10-31T07:08:32;20.17;;;12.73;;
7525;SDS011;3804;50.860;6.208;2022-10-31T07:10:59;20.90;;;13.10;;
7525;SDS011;3804;50.860;6.208;2022-10-31T07:13:28;21.93;;;12.73;;
7525;SDS011;3804;50.860;6.208;2022-10-31T07:16:06;22.57;;;14.10;;
7525;SDS011;3804;50.860;6.208;2022-10-31T07:18:35;24.30;;;13.20;;
7525;SDS011;3804;50.860;6.208;2022-10-31T07:21:03;23.10;;;14.00;;
7525;SDS011;3804;50.860;6.208;2022-10-31T07:23:30;22.63;;;13.37;;
7525;SDS011;3804;50.860;6.208;2022-10-31T07:26:36;24.63;;;14.17;;
7525;SDS011;3804;50.860;6.208;2022-10-31T07:29:02;21.87;;;13.30;;
7525;SDS011;3804;50.860;6.208;2022-10-31T07:31:29;20.37;;;13.17;;
7525;SDS011;3804;50.860;6.208;2022-10-31T07:34:02;22.50;;;14.53;;
7525;SDS011;3804;50.860;6.208;2022-10-31T07:36:34;26.57;;;14.87;;
7525;SDS011;3804;50.860;6.208;2022-10-31T07:39:02;24.93;;;15.17;;
7525;SDS011;3804;50.860;6.208;2022-10-31T07:41:32;23.73;;;15.13;;
7525;SDS011;3804;50.860;6.208;2022-10-31T07:43:58;29.87;;;16.40;;
7525;SDS011;3804;50.860;6.208;2022-10-31T07:46:45;30.50;;;16.53;;
7525;SDS011;3804;50.860;6.208;2022-10-31T07:49:30;34.97;;;16.93;;
7525;SDS011;3804;50.860;6.208;2022-10-31T07:52:02;31.00;;;18.43;;
7525;SDS011;3804;50.860;6.208;2022-10-31T07:54:47;35.83;;;18.50;;
7525;SDS011;3804;50.860;6.208;2022-10-31T07:57:21;33.77;;;17.83;;
7525;SDS011;3804;50.860;6.208;2022-10-31T07:59:50;28.23;;;17.70;;
7525;SDS011;3804;50.860;6.208;2022-10-31T08:02:17;32.60;;;18.37;;
7525;SDS011;3804;50.860;6.208;2022-10-31T08:05:04;32.97;;;18.57;;
7525;SDS011;3804;50.860;6.208;2022-10-31T08:07:57;29.40;;;19.63;;
7525;SDS011;3804;50.860;6.208;2022-10-31T08:10:25;35.90;;;19.80;;
7525;SDS011;3804;50.860;6.208;2022-10-31T08:13:00;31.50;;;19.70;;
7525;SDS011;3804;50.860;6.208;2022-10-31T08:15:28;30.53;;;19.20;;
7525;SDS011;3804;50.860;6.208;2022-10-31T08:17:56;36.50;;;20.27;;
7525;SDS011;3804;50.860;6.208;2022-10-31T08:20:23;36.67;;;19.57;;
7525;SDS011;3804;50.860;6.208;2022-10-31T08:25:21;32.90;;;19.33;;
7525;SDS011;3804;50.860;6.208;2022-10-31T08:27:49;31.63;;;19.77;;
7525;SDS011;3804;50.860;6.208;2022-10-31T08:30:18;36.87;;;20.33;;
7525;SDS011;3804;50.860;6.208;2022-10-31T08:33:06;38.10;;;19.90;;
7525;SDS011;3804;50.860;6.208;2022-10-31T08:35:51;40.23;;;20.40;;
7525;SDS011;3804;50.860;6.208;2022-10-31T08:38:47;39.17;;;19.67;;
7525;SDS011;3804;50.860;6.208;2022-10-31T08:41:15;35.93;;;19.50;;
7525;SDS011;3804;50.860;6.208;2022-10-31T08:43:42;34.03;;;20.17;;
7525;SDS011;3804;50.860;6.208;2022-10-31T08:46:09;30.67;;;19.57;;
7525;SDS011;3804;50.860;6.208;2022-10-31T08:48:38;37.07;;;19.60;;
7525;SDS011;3804;50.860;6.208;2022-10-31T08:51:05;36.83;;;19.20;;
7525;SDS011;3804;50.860;6.208;2022-10-31T08:53:32;33.33;;;18.57;;
7525;SDS011;3804;50.860;6.208;2022-10-31T08:56:21;28.07;;;18.30;;
7525;SDS011;3804;50.860;6.208;2022-10-31T08:58:48;32.13;;;19.50;;
7525;SDS011;3804;50.860;6.208;2022-10-31T09:01:16;34.53;;;20.27;;
7525;SDS011;3804;50.860;6.208;2022-10-31T09:03:43;38.53;;;20.20;;
7525;SDS011;3804;50.860;6.208;2022-10-31T09:06:10;34.50;;;20.57;;
7525;SDS011;3804;50.860;6.208;2022-10-31T09:08:37;33.80;;;19.70;;
7525;SDS011;3804;50.860;6.208;2022-10-31T09:11:05;31.77;;;18.97;;
7525;SDS011;3804;50.860;6.208;2022-10-31T09:14:01;30.40;;;19.27;;
7525;SDS011;3804;50.860;6.208;2022-10-31T09:16:56;30.37;;;18.90;;
7525;SDS011;3804;50.860;6.208;2022-10-31T09:19:30;27.93;;;17.20;;
7525;SDS011;3804;50.860;6.208;2022-10-31T09:21:58;21.83;;;16.43;;
7525;SDS011;3804;50.860;6.208;2022-10-31T09:24:25;24.80;;;15.50;;
7525;SDS011;3804;50.860;6.208;2022-10-31T09:26:52;24.03;;;14.73;;
7525;SDS011;3804;50.860;6.208;2022-10-31T09:29:25;24.87;;;15.03;;
7525;SDS011;3804;50.860;6.208;2022-10-31T09:31:56;26.27;;;14.50;;
7525;SDS011;3804;50.860;6.208;2022-10-31T09:34:32;24.83;;;15.43;;
7525;SDS011;3804;50.860;6.208;2022-10-31T09:37:02;25.40;;;14.27;;
7525;SDS011;3804;50.860;6.208;2022-10-31T09:39:28;22.90;;;15.10;;
7525;SDS011;3804;50.860;6.208;2022-10-31T09:45:50;23.87;;;13.83;;
7525;SDS011;3804;50.860;6.208;2022-10-31T09:47:52;27.03;;;13.93;;
7525;SDS011;3804;50.860;6.208;2022-10-31T09:50:43;19.50;;;12.00;;
7525;SDS011;3804;50.860;6.208;2022-10-31T09:56:14;17.83;;;11.53;;
7525;SDS011;3804;50.860;6.208;2022-10-31T09:58:53;16.57;;;10.13;;
7525;SDS011;3804;50.860;6.208;2022-10-31T10:04:13;22.90;;;12.00;;
7525;SDS011;3804;50.860;6.208;2022-10-31T10:07:14;21.70;;;11.90;;
7525;SDS011;3804;50.860;6.208;2022-10-31T10:09:43;21.57;;;11.40;;
7525;SDS011;3804;50.860;6.208;2022-10-31T10:12:45;22.73;;;12.10;;
7525;SDS011;3804;50.860;6.208;2022-10-31T10:17:57;21.30;;;11.93;;
7525;SDS011;3804;50.860;6.208;2022-10-31T10:23:14;18.93;;;10.10;;
7525;SDS011;3804;50.860;6.208;2022-10-31T10:25:42;23.03;;;10.23;;
7525;SDS011;3804;50.860;6.208;2022-10-31T10:28:20;20.23;;;10.40;;
7525;SDS011;3804;50.860;6.208;2022-10-31T10:30:53;21.17;;;10.33;;
7525;SDS011;3804;50.860;6.208;2022-10-31T10:33:28;16.87;;;7.93;;
7525;SDS011;3804;50.860;6.208;2022-10-31T10:36:00;13.30;;;8.53;;
7525;SDS011;3804;50.860;6.208;2022-10-31T10:38:29;14.30;;;8.77;;
7525;SDS011;3804;50.860;6.208;2022-10-31T10:40:59;14.23;;;8.20;;
7525;SDS011;3804;50.860;6.208;2022-10-31T10:43:32;11.00;;;8.17;;
7525;SDS011;3804;50.860;6.208;2022-10-31T10:48:46;15.50;;;8.13;;
7525;SDS011;3804;50.860;6.208;2022-10-31T10:51:21;15.87;;;8.13;;
7525;SDS011;3804;50.860;6.208;2022-10-31T10:59:30;13.87;;;7.13;;
7525;SDS011;3804;50.860;6.208;2022-10-31T11:01:57;14.47;;;7.97;;
7525;SDS011;3804;50.860;6.208;2022-10-31T11:04:29;14.80;;;7.67;;
7525;SDS011;3804;50.860;6.208;2022-10-31T11:07:00;17.27;;;8.03;;
7525;SDS011;3804;50.860;6.208;2022-10-31T11:09:27;16.97;;;7.60;;
7525;SDS011;3804;50.860;6.208;2022-10-31T11:11:54;15.13;;;7.23;;
7525;SDS011;3804;50.860;6.208;2022-10-31T11:14:20;17.37;;;7.80;;
7525;SDS011;3804;50.860;6.208;2022-10-31T11:16:50;12.43;;;7.43;;
7525;SDS011;3804;50.860;6.208;2022-10-31T11:19:21;15.10;;;7.67;;
7525;SDS011;3804;50.860;6.208;2022-10-31T11:21:48;15.20;;;7.37;;
7525;SDS011;3804;50.860;6.208;2022-10-31T11:24:23;14.73;;;7.43;;
7525;SDS011;3804;50.860;6.208;2022-10-31T11:26:51;16.57;;;7.20;;
7525;SDS011;3804;50.860;6.208;2022-10-31T11:29:22;11.07;;;5.20;;
7525;SDS011;3804;50.860;6.208;2022-10-31T11:31:57;8.07;;;5.13;;
7525;SDS011;3804;50.860;6.208;2022-10-31T11:36:52;11.70;;;5.07;;
7525;SDS011;3804;50.860;6.208;2022-10-31T11:39:20;11.03;;;4.17;;
7525;SDS011;3804;50.860;6.208;2022-10-31T11:41:50;11.93;;;4.80;;
7525;SDS011;3804;50.860;6.208;2022-10-31T11:44:19;7.80;;;4.80;;
7525;SDS011;3804;50.860;6.208;2022-10-31T11:49:17;11.00;;;5.07;;
7525;SDS011;3804;50.860;6.208;2022-10-31T11:52:06;9.40;;;4.70;;
7525;SDS011;3804;50.860;6.208;2022-10-31T11:54:41;13.07;;;5.77;;
7525;SDS011;3804;50.860;6.208;2022-10-31T11:57:21;10.20;;;5.07;;
7525;SDS011;3804;50.860;6.208;2022-10-31T11:59:52;9.93;;;5.23;;
7525;SDS011;3804;50.860;6.208;2022-10-31T12:02:20;9.63;;;5.03;;
7525;SDS011;3804;50.860;6.208;2022-10-31T12:04:49;11.00;;;4.80;;
7525;SDS011;3804;50.860;6.208;2022-10-31T12:07:18;18.37;;;5.10;;
7525;SDS011;3804;50.860;6.208;2022-10-31T12:09:45;11.40;;;5.60;;
7525;SDS011;3804;50.860;6.208;2022-10-31T12:17:14;12.40;;;5.27;;
7525;SDS011;3804;50.860;6.208;2022-10-31T12:24:50;11.63;;;6.90;;
7525;SDS011;3804;50.860;6.208;2022-10-31T12:48:11;14.53;;;7.60;;
7525;SDS011;3804;50.860;6.208;2022-10-31T12:50:50;17.90;;;9.23;;
7525;SDS011;3804;50.860;6.208;2022-10-31T12:58:38;14.97;;;7.73;;
7525;SDS011;3804;50.860;6.208;2022-10-31T13:03:36;16.77;;;7.43;;
7525;SDS011;3804;50.860;6.208;2022-10-31T13:06:08;14.33;;;6.63;;
7525;SDS011;3804;50.860;6.208;2022-10-31T13:08:40;11.43;;;6.40;;
7525;SDS011;3804;50.860;6.208;2022-10-31T13:14:26;14.67;;;6.60;;
7525;SDS011;3804;50.860;6.208;2022-10-31T13:16:28;12.53;;;6.10;;
7525;SDS011;3804;50.860;6.208;2022-10-31T13:21:25;14.93;;;7.13;;
7525;SDS011;3804;50.860;6.208;2022-10-31T13:23:52;11.00;;;5.90;;
7525;SDS011;3804;50.860;6.208;2022-10-31T13:26:31;10.27;;;5.20;;
7525;SDS011;3804;50.860;6.208;2022-10-31T13:31:38;12.17;;;5.40;;
7525;SDS011;3804;50.860;6.208;2022-10-31T13:34:08;11.83;;;5.00;;
7525;SDS011;3804;50.860;6.208;2022-10-31T13:36:38;12.40;;;4.77;;
7525;SDS011;3804;50.860;6.208;2022-10-31T13:39:12;12.80;;;5.53;;
7525;SDS011;3804;50.860;6.208;2022-10-31T13:41:50;13.77;;;6.17;;
7525;SDS011;3804;50.860;6.208;2022-10-31T13:44:20;10.93;;;5.57;;
7525;SDS011;3804;50.860;6.208;2022-10-31T13:46:50;12.53;;;5.53;;
7525;SDS011;3804;50.860;6.208;2022-10-31T13:49:24;15.30;;;6.00;;
7525;SDS011;3804;50.860;6.208;2022-10-31T13:51:52;12.10;;;6.03;;
7525;SDS011;3804;50.860;6.208;2022-10-31T13:54:23;11.00;;;5.40;;
7525;SDS011;3804;50.860;6.208;2022-10-31T13:56:50;11.17;;;5.30;;
7525;SDS011;3804;50.860;6.208;2022-10-31T13:59:18;12.47;;;5.17;;
7525;SDS011;3804;50.860;6.208;2022-10-31T14:01:53;14.50;;;5.50;;
7525;SDS011;3804;50.860;6.208;2022-10-31T14:04:22;9.90;;;4.97;;
7525;SDS011;3804;50.860;6.208;2022-10-31T14:06:55;15.47;;;4.90;;
7525;SDS011;3804;50.860;6.208;2022-10-31T14:11:50;11.13;;;4.83;;
7525;SDS011;3804;50.860;6.208;2022-10-31T14:14:17;9.57;;;4.37;;
7525;SDS011;3804;50.860;6.208;2022-10-31T14:16:45;12.23;;;5.00;;
7525;SDS011;3804;50.860;6.208;2022-10-31T14:19:18;11.50;;;4.63;;
7525;SDS011;3804;50.860;6.208;2022-10-31T14:21:46;7.00;;;4.17;;
7525;SDS011;3804;50.860;6.208;2022-10-31T14:26:59;9.30;;;4.87;;
7525;SDS011;3804;50.860;6.208;2022-10-31T14:29:27;11.97;;;4.63;;
7525;SDS011;3804;50.860;6.208;2022-10-31T14:47:45;11.43;;;4.70;;
7525;SDS011;3804;50.860;6.208;2022-10-31T14:52:47;13.07;;;4.30;;
7525;SDS011;3804;50.860;6.208;2022-10-31T14:55:15;11.33;;;4.20;;
7525;SDS011;3804;50.860;6.208;2022-10-31T14:58:01;8.70;;;4.20;;
7525;SDS011;3804;50.860;6.208;2022-10-31T15:00:29;10.57;;;4.30;;
7525;SDS011;3804;50.860;6.208;2022-10-31T15:05:45;9.77;;;3.80;;
7525;SDS011;3804;50.860;6.208;2022-10-31T15:08:13;13.20;;;4.00;;
7525;SDS011;3804;50.860;6.208;2022-10-31T15:10:44;11.13;;;4.13;;
7525;SDS011;3804;50.860;6.208;2022-10-31T15:13:17;9.13;;;4.00;;
7525;SDS011;3804;50.860;6.208;2022-10-31T15:15:44;6.57;;;3.60;;
7525;SDS011;3804;50.860;6.208;2022-10-31T15:18:18;7.23;;;3.70;;
7525;SDS011;3804;50.860;6.208;2022-10-31T15:20:45;14.50;;;4.30;;
7525;SDS011;3804;50.860;6.208;2022-10-31T15:23:16;9.70;;;4.40;;
7525;SDS011;3804;50.860;6.208;2022-10-31T15:25:49;7.43;;;4.37;;
7525;SDS011;3804;50.860;6.208;2022-10-31T15:28:23;11.93;;;4.57;;
7525;SDS011;3804;50.860;6.208;2022-10-31T15:30:57;8.73;;;4.07;;
7525;SDS011;3804;50.860;6.208;2022-10-31T15:36:03;8.80;;;4.57;;
7525;SDS011;3804;50.860;6.208;2022-10-31T15:38:30;9.40;;;5.03;;
7525;SDS011;3804;50.860;6.208;2022-10-31T15:41:04;11.60;;;4.37;;
7525;SDS011;3804;50.860;6.208;2022-10-31T15:43:34;11.33;;;4.97;;
7525;SDS011;3804;50.860;6.208;2022-10-31T15:46:02;10.23;;;4.97;;
7525;SDS011;3804;50.860;6.208;2022-10-31T15:48:29;13.17;;;4.70;;
7525;SDS011;3804;50.860;6.208;2022-10-31T15:50:58;11.07;;;4.67;;
7525;SDS011;3804;50.860;6.208;2022-10-31T15:53:26;9.93;;;4.77;;
7525;SDS011;3804;50.860;6.208;2022-10-31T15:55:57;10.37;;;4.70;;
7525;SDS011;3804;50.860;6.208;2022-10-31T15:58:24;11.07;;;5.10;;
7525;SDS011;3804;50.860;6.208;2022-10-31T16:01:05;9.13;;;5.07;;
7525;SDS011;3804;50.860;6.208;2022-10-31T16:03:32;12.10;;;5.30;;
7525;SDS011;3804;50.860;6.208;2022-10-31T16:06:00;12.70;;;5.03;;
7525;SDS011;3804;50.860;6.208;2022-10-31T16:08:34;13.53;;;5.17;;
7525;SDS011;3804;50.860;6.208;2022-10-31T16:13:38;16.40;;;5.57;;
7525;SDS011;3804;50.860;6.208;2022-10-31T16:16:13;10.40;;;5.20;;
7525;SDS011;3804;50.860;6.208;2022-10-31T16:19:00;11.07;;;5.80;;
7525;SDS011;3804;50.860;6.208;2022-10-31T16:21:29;13.27;;;5.70;;
7525;SDS011;3804;50.860;6.208;2022-10-31T16:23:57;12.07;;;6.10;;
7525;SDS011;3804;50.860;6.208;2022-10-31T16:26:31;10.70;;;5.70;;
7525;SDS011;3804;50.860;6.208;2022-10-31T16:28:58;12.57;;;6.30;;
7525;SDS011;3804;50.860;6.208;2022-10-31T16:31:35;11.10;;;7.10;;
7525;SDS011;3804;50.860;6.208;2022-10-31T16:34:03;14.53;;;7.07;;
7525;SDS011;3804;50.860;6.208;2022-10-31T16:36:32;16.37;;;7.63;;
7525;SDS011;3804;50.860;6.208;2022-10-31T16:39:02;11.83;;;7.77;;
7525;SDS011;3804;50.860;6.208;2022-10-31T16:41:29;13.93;;;6.60;;
7525;SDS011;3804;50.860;6.208;2022-10-31T16:43:55;14.27;;;6.80;;
7525;SDS011;3804;50.860;6.208;2022-10-31T16:46:23;11.67;;;7.17;;
7525;SDS011;3804;50.860;6.208;2022-10-31T16:48:50;13.23;;;6.73;;
7525;SDS011;3804;50.860;6.208;2022-10-31T16:51:17;12.53;;;6.20;;
7525;SDS011;3804;50.860;6.208;2022-10-31T16:53:43;14.60;;;7.27;;
7525;SDS011;3804;50.860;6.208;2022-10-31T16:56:17;11.57;;;6.67;;
7525;SDS011;3804;50.860;6.208;2022-10-31T16:58:44;10.63;;;6.03;;
7525;SDS011;3804;50.860;6.208;2022-10-31T17:01:11;15.00;;;6.73;;
7525;SDS011;3804;50.860;6.208;2022-10-31T17:03:39;10.33;;;5.70;;
7525;SDS011;3804;50.860;6.208;2022-10-31T17:06:09;11.47;;;6.33;;
7525;SDS011;3804;50.860;6.208;2022-10-31T17:08:36;13.60;;;6.13;;
7525;SDS011;3804;50.860;6.208;2022-10-31T17:11:03;13.93;;;5.67;;
7525;SDS011;3804;50.860;6.208;2022-10-31T17:13:30;12.17;;;6.13;;
7525;SDS011;3804;50.860;6.208;2022-10-31T17:15:58;12.53;;;5.97;;
7525;SDS011;3804;50.860;6.208;2022-10-31T17:18:25;13.00;;;6.43;;
7525;SDS011;3804;50.860;6.208;2022-10-31T17:20:57;10.73;;;4.87;;
7525;SDS011;3804;50.860;6.208;2022-10-31T17:23:25;8.87;;;3.80;;
7525;SDS011;3804;50.860;6.208;2022-10-31T17:25:52;9.47;;;3.40;;
7525;SDS011;3804;50.860;6.208;2022-10-31T17:28:19;8.83;;;4.03;;
7525;SDS011;3804;50.860;6.208;2022-10-31T17:30:46;7.00;;;3.63;;
7525;SDS011;3804;50.860;6.208;2022-10-31T17:33:14;7.17;;;3.53;;
7525;SDS011;3804;50.860;6.208;2022-10-31T17:35:41;6.03;;;3.10;;
7525;SDS011;3804;50.860;6.208;2022-10-31T17:38:08;6.17;;;3.40;;
7525;SDS011;3804;50.860;6.208;2022-10-31T17:40:36;6.90;;;3.40;;
7525;SDS011;3804;50.860;6.208;2022-10-31T17:43:03;7.57;;;3.07;;
7525;SDS011;3804;50.860;6.208;2022-10-31T17:45:30;8.30;;;2.90;;
7525;SDS011;3804;50.860;6.208;2022-10-31T17:47:56;8.30;;;3.30;;
7525;SDS011;3804;50.860;6.208;2022-10-31T17:50:24;7.63;;;2.87;;
7525;SDS011;3804;50.860;6.208;2022-10-31T17:52:51;8.03;;;3.30;;